EST,Max TemperatureF,Mean TemperatureF,Min TemperatureF,Max Dew PointF,MeanDew PointF,Min DewpointF,Max Humidity, Mean Humidity, Min Humidity, Max Sea Level PressureIn, Mean Sea Level PressureIn, Min Sea Level PressureIn, Max VisibilityMiles, Mean VisibilityMiles, Min VisibilityMiles, Max Wind SpeedMPH, Mean Wind SpeedMPH, Max Gust SpeedMPH,PrecipitationIn, CloudCover, Events, WindDirDegrees
2014-2-1,23,12,1,23,11,-2,97,87,82,30.08,29.96,29.84,10,5,0,7,1,,0.04,6,Snow,1
2014-2-2,22,10,-4,19,11,-8,89,78,59,30.23,30.11,29.96,10,9,1,9,4,,0.00,5,Snow,291
2014-2-3,20,4,-13,8,-2,-19,88,75,57,30.31,30.27,30.22,10,9,2,8,1,,0.00,3,Snow,250
2014-2-4,23,12,2,14,8,-2,87,78,66,30.37,30.30,30.17,10,10,5,9,0,,0.00,1,,64
2014-2-5,20,16,11,16,8,3,85,70,49,30.31,30.17,30.06,10,9,3,17,9,21,0.00,7,Snow,4
2014-2-6,12,10,8,8,4,2,84,75,64,30.31,30.22,30.17,10,7,2,18,6,24,0.00,8,Snow,253
2014-2-7,13,9,5,6,2,-1,77,73,67,30.19,30.16,30.14,10,7,2,20,12,28,0.00,6,Snow,252
2014-2-8,20,14,8,14,7,3,90,76,57,30.19,30.15,30.09,10,8,1,13,7,18,0.00,7,Snow,243
2014-2-9,22,14,8,15,10,5,88,81,62,30.12,30.04,29.98,10,5,1,9,1,,0.00,8,Snow,291
2014-2-10,14,8,2,10,3,-2,89,76,61,30.34,30.23,30.11,10,7,2,13,3,16,0.00,8,Snow,308
2014-2-11,17,10,4,5,0,-5,77,66,49,30.44,30.38,30.34,10,10,10,10,2,,0.00,5,,188
2014-2-12,20,8,-3,11,2,-8,85,75,52,30.33,30.17,30.01,10,9,1,9,4,,0.00,5,Snow,175
2014-2-13,29,22,14,21,11,4,87,65,34,30.01,29.74,29.43,10,10,5,16,4,22,0.00,7,Snow,153
2014-2-14,26,18,8,23,17,4,96,80,71,29.83,29.59,29.41,10,6,1,15,6,23,0.00,7,Snow,308
2014-2-15,25,13,1,11,4,-3,81,68,45,30.00,29.94,29.84,10,9,4,8,3,,0.00,3,Snow,288
2014-2-16,25,15,5,15,11,3,92,77,57,30.30,30.06,29.89,10,7,1,8,2,,0.00,5,Snow,33
2014-2-17,16,8,1,13,5,-3,88,79,58,30.31,30.04,29.66,10,6,0,20,5,26,0.01,5,Snow,115
2014-2-18,37,24,12,28,18,8,88,76,61,29.88,29.74,29.57,10,9,2,15,5,18,0.01,3,Snow,203
2014-2-19,44,36,27,28,25,18,87,68,37,29.95,29.76,29.57,10,9,2,18,7,24,0.00,1,Snow,268
2014-2-20,37,32,27,36,30,24,100,88,69,29.96,29.70,29.27,10,6,1,22,8,30,0.15,6,Snow,129
2014-2-21,36,30,24,37,24,14,100,80,66,29.61,29.37,29.23,10,4,0,30,19,45,0.03,8,Snow,235
2014-2-22,30,24,20,15,14,11,74,65,49,29.92,29.78,29.61,10,9,4,26,17,34,0.00,2,,253
2014-2-23,22,18,14,11,9,7,77,65,54,30.02,29.97,29.92,10,10,7,21,12,32,0.00,4,Snow,274
2014-2-24,18,14,10,11,7,4,81,72,63,30.14,30.06,30.00,10,7,0,18,10,23,0.00,8,Snow,283
2014-2-25,18,12,7,11,6,1,87,75,56,30.10,30.03,29.97,10,7,2,18,6,28,0.00,7,Snow,272
2014-2-26,13,6,-2,8,0,-7,83,72,58,30.02,29.83,29.46,10,7,0,25,10,38,0.00,5,Snow,261
2014-2-27,12,0,-13,8,-6,-20,83,67,43,30.15,29.84,29.44,10,5,0,22,10,31,0.00,6,Snow,321
2014-2-28,15,-3,-21,11,-11,-28,84,62,43,30.22,30.13,29.99,10,9,2,17,4,21,0.00,5,Snow,165